createdAt,value
2022-08-14T09:54:52.744Z,27.95
2022-08-14T09:56:01.229Z,28.02
2022-08-14T09:56:57.237Z,28.15
2022-08-14T09:57:53.346Z,28.37
2022-08-14T09:59:52.793Z,28.54
2022-08-14T10:00:52.954Z,28.70
2022-08-14T10:01:53.445Z,28.91
2022-08-14T10:02:52.690Z,29.08
2022-08-14T10:03:53.672Z,29.13
2022-08-14T10:04:52.732Z,29.05
2022-08-14T10:05:52.634Z,29.07
2022-08-14T10:06:52.592Z,29.12
2022-08-14T10:07:57.496Z,29.20
2022-08-14T10:08:52.573Z,29.19
2022-08-14T10:09:59.658Z,29.04
2022-08-14T10:10:57.097Z,28.86
2022-08-14T10:11:52.594Z,28.79
2022-08-14T10:12:52.979Z,28.84
2022-08-14T10:13:53.617Z,28.89
2022-08-14T10:14:53.710Z,29.02
2022-08-14T10:15:52.572Z,29.16
2022-08-14T10:16:52.499Z,29.29
2022-08-14T10:17:53.226Z,29.31
2022-08-14T10:18:52.513Z,29.24
2022-08-14T10:19:52.465Z,29.17
2022-08-14T10:20:52.440Z,29.20
2022-08-14T10:21:58.414Z,29.10
2022-08-14T10:23:12.296Z,28.89
2022-08-14T10:23:53.431Z,28.84
2022-08-14T10:24:52.569Z,28.93
2022-08-14T10:25:52.835Z,28.91
2022-08-14T10:26:54.357Z,28.85
2022-08-14T10:27:57.006Z,28.93
2022-08-14T10:29:18.557Z,28.97
2022-08-14T10:29:53.369Z,28.86
2022-08-14T10:30:53.088Z,28.82
2022-08-14T10:31:52.350Z,28.94
2022-08-14T10:32:52.571Z,29.08
2022-08-14T10:33:52.331Z,29.19
2022-08-14T10:34:52.496Z,29.23
2022-08-14T10:35:52.333Z,29.20
2022-08-14T10:37:02.445Z,29.27
2022-08-14T10:37:55.254Z,29.32
2022-08-14T10:38:52.307Z,29.50
2022-08-14T10:40:01.639Z,29.72
2022-08-14T10:40:59.360Z,29.90
2022-08-14T10:41:53.747Z,30.06
2022-08-14T10:42:52.225Z,30.24
2022-08-14T10:43:52.228Z,30.46
2022-08-14T10:44:52.633Z,30.66
2022-08-14T10:46:03.454Z,30.85
2022-08-14T10:47:36.321Z,30.70
2022-08-14T10:48:08.642Z,30.65
2022-08-14T10:48:53.157Z,30.59
2022-08-14T10:49:53.298Z,30.54
2022-08-14T10:50:52.175Z,30.40
2022-08-14T10:51:52.170Z,30.31
2022-08-14T10:52:55.119Z,30.37
2022-08-14T10:53:56.748Z,30.40
2022-08-14T10:54:56.296Z,30.48
2022-08-14T10:55:52.077Z,30.54
2022-08-14T10:56:52.169Z,30.55
2022-08-14T10:57:52.064Z,30.59
2022-08-14T10:58:52.071Z,30.69
2022-08-14T10:59:52.074Z,30.77
2022-08-14T11:00:52.039Z,30.87
2022-08-14T11:01:52.044Z,30.88
2022-08-14T11:02:54.932Z,30.87
2022-08-14T11:03:56.821Z,30.65
2022-08-14T11:04:52.057Z,30.55
2022-08-14T11:05:55.675Z,30.66
2022-08-14T11:06:51.982Z,30.77
2022-08-14T11:10:19.814Z,30.91
2022-08-14T11:11:19.756Z,30.90
2022-08-14T11:12:40.159Z,30.62
2022-08-14T11:13:20.734Z,30.53
2022-08-14T11:16:53.346Z,30.77
2022-08-14T11:17:45.941Z,30.92
2022-08-14T11:18:44.594Z,30.96
2022-08-14T11:19:44.525Z,30.94
2022-08-14T11:20:44.523Z,30.87
2022-08-14T11:21:45.875Z,30.91
2022-08-14T11:22:56.094Z,30.94
2022-08-14T11:23:44.492Z,30.72
2022-08-14T11:24:54.383Z,30.75
2022-08-14T11:25:53.406Z,30.77
2022-08-14T11:26:51.981Z,30.75
2022-08-14T11:27:44.459Z,30.75
2022-08-14T11:28:48.038Z,30.88
2022-08-14T11:29:47.446Z,30.81
2022-08-14T11:30:49.210Z,30.72
2022-08-14T11:31:44.448Z,30.75
2022-08-14T11:32:44.578Z,30.63
2022-08-14T11:33:44.400Z,30.57
2022-08-14T11:34:44.385Z,30.59
2022-08-14T11:35:48.305Z,30.63
2022-08-14T11:37:09.604Z,30.66
2022-08-14T11:37:45.368Z,30.81
2022-08-14T11:40:28.421Z,31.02
2022-08-14T11:41:22.210Z,31.22
2022-08-14T11:42:56.758Z,31.37
2022-08-14T11:43:29.510Z,31.33
2022-08-14T11:44:45.477Z,31.37
2022-08-14T11:47:20.424Z,30.81
2022-08-14T11:49:02.387Z,30.61
2022-08-14T11:49:22.152Z,30.43
2022-08-14T11:50:33.605Z,30.43
2022-08-14T11:51:20.196Z,30.48
2022-08-14T11:52:21.685Z,30.53
2022-08-14T11:53:20.181Z,30.48
2022-08-14T11:54:20.346Z,30.48
2022-08-14T11:55:25.079Z,30.48
2022-08-14T11:56:29.801Z,30.50
2022-08-14T11:57:20.173Z,30.54
2022-08-14T11:58:24.151Z,30.44
2022-08-14T11:59:20.143Z,30.31
2022-08-14T12:00:31.632Z,30.34
2022-08-14T12:01:21.186Z,30.09
2022-08-14T12:03:00.234Z,29.88
2022-08-14T12:03:37.828Z,29.84
2022-08-14T12:04:31.855Z,29.93
2022-08-14T12:05:20.156Z,30.05
2022-08-14T12:06:29.125Z,30.09
2022-08-14T12:07:21.178Z,30.09
2022-08-14T12:08:24.407Z,29.94
2022-08-14T12:09:20.082Z,29.84
2022-08-14T12:10:26.669Z,29.84
2022-08-14T12:11:21.048Z,29.90
2022-08-14T12:12:35.860Z,30.02
2022-08-14T12:13:22.265Z,30.08
2022-08-14T12:14:29.927Z,30.18
2022-08-14T12:15:24.009Z,30.21
2022-08-14T12:16:20.839Z,30.27
2022-08-14T12:17:23.887Z,30.27
2022-08-14T12:18:20.041Z,30.35
2022-08-14T12:19:20.011Z,30.34
2022-08-14T12:20:30.242Z,30.19
2022-08-14T12:21:19.976Z,30.02
2022-08-14T12:22:30.259Z,29.93
2022-08-14T12:23:19.911Z,29.88
2022-08-14T12:24:36.068Z,29.91
2022-08-14T12:25:21.005Z,29.90
2022-08-14T12:26:39.078Z,29.93
2022-08-14T12:27:25.144Z,29.82
2022-08-14T12:28:27.149Z,29.82
2022-08-14T12:29:19.914Z,29.90
2022-08-14T12:30:22.870Z,29.93
2022-08-14T12:31:20.929Z,29.87
2022-08-14T12:32:19.829Z,29.88
2022-08-14T12:33:19.818Z,29.82
2022-08-14T12:34:20.715Z,29.45
2022-08-14T12:35:19.885Z,29.31
2022-08-14T12:36:20.632Z,29.31
2022-08-14T12:37:20.425Z,29.22
2022-08-14T12:38:23.857Z,29.29
2022-08-14T12:39:19.820Z,29.36
2022-08-14T12:40:21.019Z,29.29
2022-08-14T12:41:20.673Z,29.31
2022-08-14T12:42:34.713Z,29.41
2022-08-14T12:43:19.739Z,29.35
2022-08-14T12:44:20.381Z,29.51
2022-08-14T12:45:22.857Z,29.59
2022-08-14T12:46:26.751Z,29.73
2022-08-14T12:47:19.672Z,29.88
2022-08-14T12:48:21.026Z,29.88
2022-08-14T12:49:19.704Z,29.90
2022-08-14T12:50:20.308Z,30.03
2022-08-14T12:51:19.634Z,29.98
2022-08-14T12:52:19.613Z,29.91
2022-08-14T12:53:20.641Z,29.79
2022-08-14T12:54:28.331Z,29.68
2022-08-14T12:55:19.588Z,29.61
2022-08-14T12:56:32.905Z,29.68
2022-08-14T12:57:20.623Z,29.54
2022-08-14T12:58:29.581Z,29.29
2022-08-14T12:59:20.586Z,29.32
2022-08-14T13:00:23.925Z,29.24
2022-08-14T13:01:20.477Z,29.34
2022-08-14T13:02:19.598Z,29.22
2022-08-14T13:03:19.566Z,29.12
2022-08-14T13:04:19.505Z,28.91
2022-08-14T13:05:19.499Z,28.89
2022-08-14T13:06:19.697Z,28.93
2022-08-14T13:07:19.511Z,28.96
2022-08-14T13:08:33.009Z,28.91
2022-08-14T13:09:19.518Z,28.82
2022-08-14T13:10:51.198Z,28.78
2022-08-14T13:11:20.454Z,28.81
2022-08-14T13:12:34.867Z,28.88
2022-08-14T13:13:19.620Z,28.70
2022-08-14T13:14:21.529Z,28.52
2022-08-14T13:15:22.452Z,28.59
2022-08-14T13:16:21.033Z,28.51
2022-08-14T13:17:20.376Z,28.62
2022-08-14T13:18:19.389Z,28.54
2022-08-14T13:19:19.980Z,28.69
2022-08-14T13:20:23.455Z,28.79
2022-08-14T13:21:19.386Z,28.85
2022-08-14T13:22:29.077Z,28.94
2022-08-14T13:23:19.316Z,29.04
2022-08-14T13:24:19.421Z,29.08
2022-08-14T13:25:19.325Z,29.10
2022-08-14T13:26:19.333Z,29.14
2022-08-14T13:27:19.349Z,28.96
2022-08-14T13:28:30.186Z,28.76
2022-08-14T13:29:19.251Z,28.49
2022-08-14T13:30:24.254Z,28.39
2022-08-14T13:31:19.259Z,28.25
2022-08-14T13:32:19.267Z,28.23
2022-08-14T13:33:19.327Z,28.33
2022-08-14T13:34:19.201Z,28.45
2022-08-14T13:35:19.285Z,28.52
2022-08-14T13:36:24.441Z,28.51
2022-08-14T13:37:20.237Z,28.45
2022-08-14T13:38:19.217Z,28.38
2022-08-14T13:39:19.600Z,28.44
2022-08-14T13:40:19.161Z,28.62
2022-08-14T13:41:19.175Z,28.79
2022-08-14T13:42:20.129Z,28.86
2022-08-14T13:43:19.202Z,28.85
2022-08-14T13:44:22.161Z,28.74
2022-08-14T13:45:22.131Z,28.72
2022-08-14T13:46:20.137Z,28.64
2022-08-14T13:47:19.117Z,28.59
2022-08-14T13:48:32.352Z,28.59
2022-08-14T13:49:20.126Z,28.62
2022-08-14T13:50:20.400Z,28.62
2022-08-14T13:51:19.099Z,28.63
2022-08-14T13:52:51.469Z,28.66
2022-08-14T13:53:20.041Z,28.66
2022-08-14T13:54:19.026Z,28.67
2022-08-14T13:55:19.082Z,28.75
2022-08-14T13:56:36.008Z,28.74
2022-08-14T13:57:19.984Z,28.69
2022-08-14T13:58:30.301Z,28.56
2022-08-14T13:59:20.233Z,28.52
2022-08-14T14:00:32.848Z,28.45
2022-08-14T14:01:19.249Z,28.47
2022-08-14T14:02:31.902Z,28.41
2022-08-14T14:03:18.980Z,28.33
2022-08-14T14:04:20.168Z,28.20
2022-08-14T14:05:18.904Z,28.17
2022-08-14T14:06:18.941Z,28.10
2022-08-14T14:07:18.912Z,28.05
2022-08-14T14:08:43.427Z,28.05
2022-08-14T14:09:19.864Z,28.00
2022-08-14T14:10:18.954Z,27.95
2022-08-14T14:11:18.893Z,27.92
2022-08-14T14:12:37.349Z,27.95
2022-08-14T14:13:19.842Z,28.05
2022-08-14T14:14:45.057Z,28.14
2022-08-14T14:15:33.857Z,28.20
2022-08-14T14:16:26.599Z,28.30
2022-08-14T14:17:18.779Z,28.26
2022-08-14T14:18:34.316Z,28.12
2022-08-14T14:19:19.788Z,27.95
2022-08-14T14:20:35.471Z,27.82
2022-08-14T14:21:19.842Z,27.64
2022-08-14T14:23:00.676Z,27.54
2022-08-14T14:23:19.714Z,27.49
2022-08-14T14:24:18.716Z,27.47
2022-08-14T14:25:19.537Z,27.42
2022-08-14T14:26:23.330Z,27.37
2022-08-14T14:27:39.326Z,27.29
2022-08-14T14:28:23.868Z,27.20
2022-08-14T14:29:18.664Z,26.99
2022-08-14T14:30:46.964Z,26.89
2022-08-14T14:31:19.668Z,26.84
2022-08-14T14:32:21.571Z,26.83
2022-08-14T14:33:44.404Z,26.90
2022-08-14T14:34:28.949Z,27.00
2022-08-14T14:35:18.593Z,27.07
2022-08-14T14:36:21.322Z,27.10
2022-08-14T14:37:18.580Z,27.05
2022-08-14T14:38:18.689Z,26.97
2022-08-14T14:39:20.249Z,27.00
2022-08-14T14:40:52.349Z,27.03
2022-08-14T14:41:19.629Z,27.03
2022-08-14T14:42:31.911Z,27.02
2022-08-14T14:43:18.561Z,26.95
2022-08-14T14:44:18.542Z,26.92
2022-08-14T14:45:21.515Z,26.92
2022-08-14T14:46:18.562Z,26.92
2022-08-14T14:47:22.595Z,26.88
2022-08-14T14:48:18.484Z,26.89
2022-08-14T14:49:18.463Z,26.92
2022-08-14T14:50:19.445Z,26.93
2022-08-14T14:51:18.427Z,26.84
2022-08-14T14:52:27.179Z,26.78
2022-08-14T14:53:18.416Z,26.68
2022-08-14T14:54:18.445Z,26.68
2022-08-14T14:55:19.427Z,26.66
2022-08-14T14:56:47.737Z,26.68
2022-08-14T14:57:19.383Z,26.73
2022-08-14T14:58:20.513Z,26.75
2022-08-14T14:59:18.379Z,26.74
2022-08-14T15:00:21.350Z,26.70
2022-08-14T15:01:18.458Z,26.62
2022-08-14T15:02:18.330Z,26.59
2022-08-14T15:03:18.321Z,26.58
2022-08-14T15:04:20.669Z,26.56
2022-08-14T15:05:18.997Z,26.52
2022-08-14T15:06:18.530Z,26.52
2022-08-14T15:07:19.291Z,26.51
2022-08-14T15:08:26.777Z,26.52
2022-08-14T15:09:20.291Z,26.55
2022-08-14T15:10:26.803Z,26.48
2022-08-14T15:11:19.329Z,26.41
2022-08-14T15:12:54.985Z,26.37
2022-08-14T15:13:19.254Z,26.36
2022-08-14T15:14:54.748Z,26.34
2022-08-14T15:15:22.272Z,26.28
2022-08-14T15:16:18.209Z,26.31
2022-08-14T15:17:18.187Z,26.28
2022-08-14T15:18:36.931Z,26.28
2022-08-14T15:19:19.199Z,26.34
2022-08-14T15:20:29.860Z,26.40
2022-08-14T15:21:18.150Z,26.40
2022-08-14T15:22:18.181Z,26.43
2022-08-14T15:23:18.207Z,26.51
2022-08-14T15:24:24.408Z,26.56
2022-08-14T15:25:18.613Z,26.53
2022-08-14T15:26:18.944Z,26.51
2022-08-14T15:27:21.442Z,26.48
2022-08-14T15:28:21.116Z,26.48
2022-08-14T15:29:18.062Z,26.44
2022-08-14T15:30:23.917Z,26.41
2022-08-14T15:31:18.045Z,26.43
2022-08-14T15:32:22.860Z,26.41
2022-08-14T15:33:19.005Z,26.43
2022-08-14T15:34:44.655Z,26.44
2022-08-14T15:35:19.011Z,26.43
2022-08-14T15:36:25.670Z,26.37
2022-08-14T15:37:18.086Z,26.34
2022-08-14T15:38:18.062Z,26.26
2022-08-14T15:39:19.101Z,26.23
2022-08-14T15:40:22.532Z,26.21
2022-08-14T15:41:17.982Z,26.21
2022-08-14T15:42:17.926Z,26.23
2022-08-14T15:43:17.918Z,26.22
2022-08-14T15:44:24.819Z,26.26
2022-08-14T15:45:21.919Z,26.19
2022-08-14T15:46:25.459Z,26.21
2022-08-14T15:47:23.393Z,26.19
2022-08-14T15:48:22.629Z,26.15
2022-08-14T15:49:17.844Z,26.18
2022-08-14T15:50:19.535Z,26.21
2022-08-14T15:51:17.832Z,26.25
2022-08-14T15:52:32.742Z,26.25
2022-08-14T15:53:18.857Z,26.22
2022-08-14T15:54:17.792Z,26.21
2022-08-14T15:55:17.976Z,26.15
2022-08-14T15:56:32.755Z,26.06
2022-08-14T15:57:18.765Z,25.99
2022-08-14T15:58:17.770Z,25.98
2022-08-14T15:59:18.197Z,26.00
2022-08-14T16:00:40.132Z,26.03
2022-08-14T16:01:43.278Z,26.02
2022-08-14T16:02:18.911Z,26.00
2022-08-14T16:03:17.760Z,25.95
2022-08-14T16:04:17.719Z,25.96
2022-08-14T16:05:17.698Z,25.91
2022-08-14T16:06:18.176Z,25.87
2022-08-14T16:07:17.672Z,25.81
2022-08-14T16:08:26.575Z,25.84
2022-08-14T16:09:17.647Z,25.84
2022-08-14T16:10:29.793Z,25.87
2022-08-14T16:11:17.655Z,25.85
2022-08-14T16:12:17.612Z,25.88
2022-08-14T16:13:20.410Z,25.95
2022-08-14T16:14:20.592Z,25.93
2022-08-14T16:15:21.528Z,25.96
2022-08-14T16:16:34.690Z,26.10
2022-08-14T16:17:18.556Z,26.34
2022-08-14T16:18:18.449Z,26.52
2022-08-14T16:19:17.546Z,26.81
2022-08-14T16:20:42.421Z,27.07
2022-08-14T16:21:18.569Z,27.30
2022-08-14T16:22:59.320Z,27.64
2022-08-14T16:23:20.924Z,28.00
2022-08-14T16:24:26.915Z,28.29
2022-08-14T16:26:19.480Z,28.85
2022-08-14T16:27:23.357Z,29.13
2022-08-14T16:28:27.681Z,29.44
2022-08-14T16:29:17.430Z,29.66
2022-08-14T16:30:27.515Z,29.68
2022-08-14T16:31:17.477Z,29.78
2022-08-14T16:32:32.239Z,29.63
2022-08-14T16:33:56.550Z,29.38
2022-08-14T16:34:44.414Z,29.24
2022-08-14T16:35:18.433Z,29.23
2022-08-14T16:36:17.367Z,28.96
2022-08-14T16:37:17.393Z,28.78
2022-08-14T16:39:18.399Z,28.45
2022-08-14T16:40:17.331Z,28.29
2022-08-14T16:40:25.543Z,28.60
2022-08-14T16:41:17.632Z,28.25
2022-08-14T16:42:38.729Z,28.27
2022-08-14T16:43:19.954Z,28.14
2022-08-14T16:44:31.472Z,28.05
2022-08-14T16:45:21.291Z,27.85
2022-08-14T16:46:17.295Z,27.67
2022-08-14T16:47:17.267Z,27.54
2022-08-14T16:48:58.120Z,27.42
2022-08-14T16:49:18.291Z,27.30
2022-08-14T16:50:40.565Z,27.05
2022-08-14T16:51:18.332Z,26.88
2022-08-14T16:52:25.975Z,26.81
2022-08-14T16:53:18.200Z,26.84
2022-08-14T16:54:20.971Z,26.83
2022-08-14T16:55:18.218Z,26.78
2022-08-14T16:56:23.727Z,26.81
2022-08-14T16:57:17.208Z,26.81
2022-08-14T16:58:17.991Z,26.75
2022-08-14T16:59:17.121Z,26.53
2022-08-14T17:00:27.931Z,26.37
2022-08-14T17:01:24.947Z,26.28
2022-08-14T17:02:18.933Z,26.21
2022-08-14T17:03:17.080Z,26.16
2022-08-14T17:04:24.742Z,26.07
2022-08-14T17:05:17.134Z,25.91
2022-08-14T17:06:33.452Z,25.72
2022-08-14T17:07:18.055Z,25.66
2022-08-14T17:08:32.370Z,25.60
2022-08-14T17:09:18.036Z,25.59
2022-08-14T17:10:27.811Z,25.59
2022-08-14T17:11:17.131Z,25.55
2022-08-14T17:12:28.379Z,25.54
2022-08-14T17:13:18.004Z,25.58
2022-08-14T17:14:18.959Z,25.59
2022-08-14T17:15:19.958Z,25.59
2022-08-14T17:16:24.980Z,25.60
2022-08-14T17:17:17.087Z,25.58
2022-08-14T17:18:22.346Z,25.58
2022-08-14T17:19:19.454Z,25.58
2022-08-14T17:20:53.206Z,25.59
2022-08-14T17:21:19.418Z,25.59
2022-08-14T17:22:16.933Z,25.60
2022-08-14T17:23:16.902Z,25.62
2022-08-14T17:24:57.229Z,25.60
2022-08-14T17:25:17.869Z,25.58
2022-08-14T17:26:16.970Z,25.54
2022-08-14T17:27:18.572Z,25.51
2022-08-14T17:28:51.116Z,25.50
2022-08-14T17:29:17.896Z,25.41
2022-08-14T17:30:32.503Z,25.40
2022-08-14T17:31:16.883Z,25.38
2022-08-14T17:32:27.976Z,25.33
2022-08-14T17:33:17.790Z,25.31
2022-08-14T17:35:17.182Z,25.33
2022-08-14T17:36:20.975Z,25.32
2022-08-14T17:37:18.407Z,25.29
2022-08-14T17:38:38.703Z,25.28
2022-08-14T17:39:17.892Z,25.28
2022-08-14T17:40:16.849Z,25.18
2022-08-14T17:41:16.700Z,25.10
2022-08-14T17:42:16.719Z,25.06
2022-08-14T17:43:17.686Z,25.03
2022-08-14T17:44:20.196Z,24.99
2022-08-14T17:45:26.782Z,24.95
2022-08-14T17:46:17.791Z,24.91
2022-08-14T17:47:17.886Z,24.84
2022-08-14T17:49:14.088Z,24.77
2022-08-14T17:49:17.693Z,24.73
2022-08-14T17:50:58.837Z,24.65
2022-08-14T17:51:23.629Z,24.60
2022-08-14T17:52:18.889Z,24.54
2022-08-14T17:53:17.630Z,24.48
2022-08-14T17:54:22.609Z,24.42
2022-08-14T17:56:01.475Z,24.35
2022-08-14T17:56:17.552Z,24.26
2022-08-14T17:57:16.533Z,24.14
2022-08-14T17:58:21.298Z,24.08
2022-08-14T17:59:17.748Z,24.02
2022-08-14T18:00:19.660Z,23.98
2022-08-14T18:01:16.591Z,23.96
2022-08-14T18:02:17.136Z,23.93
2022-08-14T18:03:18.517Z,23.95
2022-08-14T18:04:28.356Z,23.95
2022-08-14T18:05:16.762Z,23.95
2022-08-14T18:06:38.235Z,23.95
2022-08-14T18:07:59.395Z,23.96
2022-08-14T18:08:34.140Z,23.96
2022-08-14T18:09:25.221Z,23.95
2022-08-14T18:10:53.149Z,23.92
2022-08-14T18:11:17.410Z,23.88
2022-08-14T18:12:31.742Z,23.86
2022-08-14T18:13:17.363Z,23.83
2022-08-14T18:14:31.444Z,23.78
2022-08-14T18:15:20.391Z,23.74
2022-08-14T18:16:20.218Z,23.69
2022-08-14T18:17:16.347Z,23.63
2022-08-14T18:18:16.335Z,23.63
2022-08-14T18:19:16.981Z,23.61
2022-08-14T18:21:40.370Z,23.58
2022-08-14T18:21:41.988Z,23.56
2022-08-14T18:22:30.958Z,23.51
2022-08-14T18:23:17.399Z,23.47
2022-08-14T18:24:19.888Z,23.41
2022-08-14T18:25:19.172Z,23.37
2022-08-14T18:26:37.360Z,23.31
2022-08-14T18:27:17.310Z,23.24
2022-08-14T18:28:35.402Z,23.17
2022-08-14T18:29:17.210Z,23.12
2022-08-14T18:30:33.450Z,23.06
2022-08-14T18:31:16.250Z,23.02
2022-08-14T19:24:45.213Z,21.57
2022-08-14T19:25:44.588Z,21.51
2022-08-14T19:26:54.622Z,21.50
2022-08-14T19:27:46.516Z,21.46
2022-08-14T19:28:44.567Z,21.45
2022-08-14T19:29:47.824Z,21.48
2022-08-14T19:30:48.526Z,21.46
2022-08-14T19:31:55.232Z,21.48
2022-08-14T20:11:03.117Z,21.07
2022-08-14T20:12:00.722Z,21.05
2022-08-14T20:12:28.816Z,20.99
2022-08-14T20:13:23.717Z,20.99
2022-08-14T20:14:20.600Z,20.95
2022-08-14T20:15:21.261Z,20.90
2022-08-14T20:16:21.128Z,20.88
2022-08-14T20:17:20.005Z,20.87
2022-08-14T20:18:49.496Z,20.82
2022-08-14T20:19:20.981Z,20.82
2022-08-14T20:20:30.817Z,20.82
2022-08-14T20:21:20.001Z,20.78
2022-08-14T20:22:36.444Z,20.78
2022-08-14T20:23:23.951Z,20.78
2022-08-14T20:24:30.999Z,20.78
2022-08-14T20:25:19.924Z,20.78
2022-08-14T20:26:31.176Z,20.75
2022-08-14T20:27:20.279Z,20.77
2022-08-14T20:28:29.011Z,20.75
2022-08-14T20:29:19.875Z,20.74
2022-08-14T20:30:29.491Z,20.70
2022-08-14T20:31:22.206Z,20.69
2022-08-14T20:32:19.865Z,20.67
2022-08-14T20:33:19.856Z,20.63
2022-08-14T20:34:35.348Z,20.59
2022-08-14T20:35:20.819Z,20.58
2022-08-14T20:36:26.056Z,20.58
2022-08-14T20:37:22.355Z,20.56
2022-08-14T20:38:30.229Z,20.59
2022-08-14T20:39:19.816Z,20.59
2022-08-14T20:40:23.792Z,20.59
2022-08-14T20:41:19.749Z,20.59
2022-08-14T20:42:19.740Z,20.60
2022-08-14T20:43:19.740Z,20.58
2022-08-14T20:44:20.933Z,20.58
2022-08-14T20:45:21.350Z,20.58
2022-08-14T21:14:25.193Z,20.32
2022-08-14T22:43:41.916Z,20.09
2022-08-14T22:44:41.854Z,20.03
2022-08-14T22:45:41.846Z,20.00
2022-08-14T22:46:43.586Z,19.96
2022-08-14T22:47:41.910Z,19.96
2022-08-14T22:48:41.805Z,19.96
2022-08-14T22:50:29.170Z,19.96
2022-08-14T22:50:48.749Z,19.96
2022-08-14T22:51:48.643Z,19.94
2022-08-14T22:52:49.223Z,19.94
2022-08-14T22:53:42.987Z,19.91
2022-08-14T22:54:52.612Z,19.91
2022-08-14T22:55:41.729Z,19.89
2022-08-14T22:56:44.820Z,19.89
2022-08-14T22:57:43.357Z,19.89
2022-08-14T22:58:41.718Z,19.88
2022-08-14T22:59:41.689Z,19.89
2022-08-14T23:00:41.690Z,19.89
2022-08-14T23:01:56.574Z,19.88
2022-08-14T23:02:43.061Z,19.88
2022-08-14T23:03:42.142Z,19.85
2022-08-14T23:04:54.399Z,19.85
2022-08-14T23:05:52.529Z,19.84
2022-08-14T23:07:02.227Z,19.84
2022-08-14T23:08:56.993Z,19.81
2022-08-14T23:09:00.526Z,19.84
2022-08-14T23:09:56.883Z,19.81
2022-08-14T23:10:41.591Z,19.79
2022-08-14T23:11:44.562Z,19.79
2022-08-14T23:12:41.592Z,19.82
2022-08-14T23:13:43.639Z,20.06
2022-08-14T23:14:41.528Z,20.25
2022-08-14T23:15:43.272Z,20.44
2022-08-14T23:16:42.608Z,20.60
2022-08-14T23:17:41.497Z,20.75
2022-08-14T23:18:41.561Z,20.87
2022-08-14T23:19:41.485Z,20.96
2022-08-14T23:20:41.467Z,21.03
2022-08-14T23:21:46.145Z,21.09
2022-08-14T23:22:41.526Z,21.11
2022-08-14T23:23:43.575Z,21.11
2022-08-14T23:24:42.737Z,21.11
2022-08-14T23:25:59.446Z,21.11
2022-08-14T23:26:49.571Z,21.06
2022-08-14T23:28:03.296Z,21.03
2022-08-14T23:28:57.124Z,20.97
2022-08-14T23:29:41.369Z,20.92
2022-08-14T23:30:41.361Z,20.84
2022-08-14T23:31:41.353Z,20.75
2022-08-14T23:32:41.354Z,20.56
2022-08-14T23:33:45.636Z,20.37
2022-08-14T23:34:48.216Z,20.13
2022-08-14T23:35:41.318Z,19.95
2022-08-14T23:36:54.296Z,19.81
2022-08-14T23:37:41.301Z,19.59
2022-08-14T23:38:41.291Z,19.49
2022-08-14T23:39:41.333Z,19.37
2022-08-14T23:40:41.270Z,19.30
2022-08-14T23:41:46.355Z,19.21
2022-08-14T23:42:41.269Z,19.19
2022-08-14T23:43:41.253Z,19.15
2022-08-14T23:44:45.675Z,19.14
2022-08-14T23:45:41.215Z,19.14
2022-08-14T23:46:41.215Z,19.09
2022-08-14T23:47:52.162Z,19.07
2022-08-14T23:48:46.468Z,19.04
2022-08-14T23:49:56.789Z,19.07
2022-08-14T23:50:44.304Z,19.08
2022-08-14T23:51:41.153Z,19.09
2022-08-14T23:52:55.533Z,19.04
2022-08-14T23:53:48.674Z,19.04
2022-08-14T23:54:48.136Z,18.99
2022-08-14T23:55:41.980Z,18.93
2022-08-14T23:56:44.099Z,18.88
2022-08-14T23:57:44.128Z,18.83
2022-08-14T23:58:42.128Z,18.77
2022-08-14T23:59:45.027Z,18.77
